createdAt,value
2019-02-20T00:00:05.484Z,0.00
2019-02-20T00:01:05.491Z,0.00
2019-02-20T00:02:05.465Z,0.00
2019-02-20T00:03:05.452Z,0.00
2019-02-20T00:04:05.445Z,0.00
2019-02-20T00:05:05.429Z,0.00
2019-02-20T00:06:05.420Z,0.00
2019-02-20T00:07:05.424Z,0.00
2019-02-20T00:08:05.398Z,0.00
2019-02-20T00:09:05.391Z,0.00
2019-02-20T00:10:05.379Z,0.00
2019-02-20T00:11:05.366Z,0.00
2019-02-20T00:12:05.356Z,0.00
2019-02-20T00:13:05.445Z,0.00
2019-02-20T00:14:05.340Z,0.00
2019-02-20T00:15:05.328Z,0.00
2019-02-20T00:16:05.313Z,0.00
2019-02-20T00:17:05.302Z,0.00
2019-02-20T00:18:05.291Z,0.00
2019-02-20T00:19:05.298Z,0.00
2019-02-20T00:20:05.275Z,0.00
2019-02-20T00:21:05.263Z,0.00
2019-02-20T00:22:05.250Z,0.00
2019-02-20T00:23:05.239Z,0.00
2019-02-20T00:24:05.230Z,0.00
2019-02-20T00:25:05.237Z,0.00
2019-02-20T00:26:05.208Z,0.00
2019-02-20T00:27:05.207Z,0.00
2019-02-20T00:28:05.185Z,0.00
2019-02-20T00:29:05.179Z,0.00
2019-02-20T00:30:05.170Z,0.00
2019-02-20T00:31:05.173Z,0.00
2019-02-20T00:32:05.153Z,0.00
2019-02-20T00:33:05.134Z,0.00
2019-02-20T00:34:05.132Z,0.00
2019-02-20T00:35:05.112Z,0.00
2019-02-20T00:36:05.102Z,0.00
2019-02-20T00:37:05.105Z,0.00
2019-02-20T00:38:05.082Z,0.00
2019-02-20T00:39:05.086Z,0.00
2019-02-20T00:40:05.058Z,0.00
2019-02-20T00:41:05.052Z,0.00
2019-02-20T00:42:05.037Z,0.00
2019-02-20T00:43:05.057Z,0.00
2019-02-20T00:44:05.015Z,0.00
2019-02-20T00:45:05.006Z,0.00
2019-02-20T00:46:04.993Z,0.00
2019-02-20T00:47:04.986Z,0.00
2019-02-20T00:48:04.976Z,0.00
2019-02-20T00:49:04.980Z,0.00
2019-02-20T00:50:04.951Z,0.00
2019-02-20T00:51:04.942Z,0.00
2019-02-20T00:52:04.929Z,0.00
2019-02-20T00:53:04.919Z,0.00
2019-02-20T00:54:04.910Z,0.00
2019-02-20T00:55:04.919Z,0.00
2019-02-20T00:56:04.888Z,0.00
2019-02-20T00:57:04.879Z,0.00
2019-02-20T00:58:04.865Z,0.00
2019-02-20T00:59:04.855Z,0.00
2019-02-20T01:00:04.881Z,0.00
2019-02-20T01:01:04.853Z,0.00
2019-02-20T01:02:04.830Z,0.00
2019-02-20T01:03:04.810Z,0.00
2019-02-20T01:04:04.819Z,0.00
2019-02-20T01:05:04.830Z,0.00
2019-02-20T01:06:05.113Z,0.00
2019-02-20T01:07:04.811Z,0.00
2019-02-20T01:08:04.759Z,0.00
2019-02-20T01:09:04.785Z,0.00
2019-02-20T01:10:04.733Z,0.00
2019-02-20T01:11:04.738Z,0.00
2019-02-20T01:12:04.739Z,0.00
2019-02-20T01:13:04.800Z,0.00
2019-02-20T01:14:04.693Z,0.00
2019-02-20T01:15:04.681Z,0.00
2019-02-20T01:16:04.684Z,0.00
2019-02-20T01:17:04.664Z,0.00
2019-02-20T01:18:04.652Z,0.00
2019-02-20T01:19:04.652Z,0.00
2019-02-20T01:20:04.646Z,0.00
2019-02-20T01:21:04.618Z,0.00
2019-02-20T01:22:04.609Z,0.00
2019-02-20T01:23:04.594Z,0.00
2019-02-20T01:24:04.584Z,0.00
2019-02-20T01:25:04.616Z,0.00
2019-02-20T01:26:04.575Z,0.00
2019-02-20T01:27:04.549Z,0.00
2019-02-20T01:28:04.542Z,0.00
2019-02-20T01:29:04.533Z,0.00
2019-02-20T01:30:04.523Z,0.00
2019-02-20T01:31:04.573Z,0.00
2019-02-20T01:32:04.498Z,0.00
2019-02-20T01:33:04.489Z,0.00
2019-02-20T01:34:04.476Z,0.00
2019-02-20T01:35:04.470Z,0.00
2019-02-20T01:36:04.461Z,0.00
2019-02-20T01:37:04.463Z,0.00
2019-02-20T01:38:04.435Z,0.00
2019-02-20T01:39:04.450Z,0.00
2019-02-20T01:40:04.412Z,0.00
2019-02-20T01:41:04.400Z,0.00
2019-02-20T01:42:04.390Z,0.00
2019-02-20T01:43:04.399Z,0.00
2019-02-20T01:44:04.371Z,0.00
2019-02-20T01:45:04.358Z,0.00
2019-02-20T01:46:04.348Z,0.00
2019-02-20T01:47:04.386Z,0.00
2019-02-20T01:48:04.327Z,0.00
2019-02-20T01:49:04.415Z,0.00
2019-02-20T01:50:04.306Z,0.00
2019-02-20T01:51:04.294Z,0.00
2019-02-20T01:52:04.284Z,0.00
2019-02-20T01:53:10.432Z,0.00
2019-02-20T01:54:05.330Z,0.00
2019-02-20T01:55:04.257Z,0.00
2019-02-20T01:56:04.245Z,0.00
2019-02-20T01:57:04.231Z,0.00
2019-02-20T01:58:04.217Z,0.00
2019-02-20T01:59:04.208Z,0.00
2019-02-20T02:00:04.237Z,0.00
2019-02-20T02:01:04.221Z,0.00
2019-02-20T02:02:04.178Z,0.00
2019-02-20T02:03:04.171Z,0.00
2019-02-20T02:04:04.153Z,0.00
2019-02-20T02:05:04.143Z,0.00
2019-02-20T02:06:04.150Z,0.00
2019-02-20T02:07:04.121Z,0.00
2019-02-20T02:08:04.112Z,0.00
2019-02-20T02:09:04.103Z,0.00
2019-02-20T02:10:04.091Z,0.00
2019-02-20T02:11:04.080Z,0.00
2019-02-20T02:12:04.105Z,0.00
2019-02-20T02:13:04.057Z,0.00
2019-02-20T02:14:04.047Z,0.00
2019-02-20T02:15:04.035Z,0.00
2019-02-20T02:16:04.028Z,0.00
2019-02-20T02:17:04.015Z,0.00
2019-02-20T02:18:04.016Z,0.00
2019-02-20T02:19:03.993Z,0.00
2019-02-20T02:20:03.980Z,0.00
2019-02-20T02:21:03.970Z,0.00
2019-02-20T02:22:03.965Z,0.00
2019-02-20T02:23:03.946Z,0.00
2019-02-20T02:24:03.952Z,0.00
2019-02-20T02:25:03.927Z,0.00
2019-02-20T02:26:10.686Z,0.00
2019-02-20T02:27:04.910Z,0.00
2019-02-20T02:28:03.898Z,0.00
2019-02-20T02:29:03.892Z,0.00
2019-02-20T02:30:03.893Z,0.00
2019-02-20T02:31:03.876Z,0.00
2019-02-20T02:32:03.856Z,0.00
2019-02-20T02:33:03.846Z,0.00
2019-02-20T02:34:03.834Z,0.00
2019-02-20T02:35:03.824Z,0.00
2019-02-20T02:36:03.832Z,0.00
2019-02-20T02:37:03.806Z,0.00
2019-02-20T02:38:03.796Z,0.00
2019-02-20T02:39:03.781Z,0.00
2019-02-20T02:40:03.770Z,0.00
2019-02-20T02:41:03.814Z,0.00
2019-02-20T02:42:03.788Z,0.00
2019-02-20T02:43:03.735Z,0.00
2019-02-20T02:44:03.735Z,0.00
2019-02-20T02:45:03.717Z,0.00
2019-02-20T02:46:03.707Z,0.00
2019-02-20T02:47:03.695Z,0.00
2019-02-20T02:48:03.724Z,0.00
2019-02-20T02:49:03.675Z,0.00
2019-02-20T02:50:03.667Z,0.00
2019-02-20T02:51:03.653Z,0.00
2019-02-20T02:52:03.642Z,0.00
2019-02-20T02:53:03.635Z,0.00
2019-02-20T02:54:03.642Z,0.00
2019-02-20T02:55:03.610Z,0.00
2019-02-20T02:56:03.609Z,0.00
2019-02-20T02:57:03.594Z,0.00
2019-02-20T02:58:03.607Z,0.00
2019-02-20T02:59:03.569Z,0.00
2019-02-20T03:00:03.688Z,0.00
2019-02-20T03:01:03.550Z,0.00
2019-02-20T03:02:03.538Z,0.00
2019-02-20T03:03:03.527Z,0.00
2019-02-20T03:04:03.541Z,0.00
2019-02-20T03:05:03.505Z,0.00
2019-02-20T03:06:03.615Z,0.00
2019-02-20T03:07:03.489Z,0.00
2019-02-20T03:08:03.472Z,0.00
2019-02-20T03:09:03.482Z,0.00
2019-02-20T03:10:03.453Z,0.00
2019-02-20T03:11:03.450Z,0.00
2019-02-20T03:12:03.444Z,0.00
2019-02-20T03:13:03.421Z,0.00
2019-02-20T03:14:03.408Z,0.00
2019-02-20T03:15:03.398Z,0.00
2019-02-20T03:16:03.386Z,0.00
2019-02-20T03:17:03.378Z,0.00
2019-02-20T03:18:03.383Z,0.00
2019-02-20T03:19:03.360Z,0.00
2019-02-20T03:20:03.342Z,0.00
2019-02-20T03:21:03.339Z,0.00
2019-02-20T03:22:03.329Z,0.00
2019-02-20T03:23:03.313Z,0.00
2019-02-20T03:24:03.316Z,0.00
2019-02-20T03:25:03.295Z,0.00
2019-02-20T03:26:03.286Z,0.00
2019-02-20T03:27:03.271Z,0.00
2019-02-20T03:28:03.262Z,0.00
2019-02-20T03:29:03.252Z,0.00
2019-02-20T03:30:03.357Z,0.00
2019-02-20T03:31:03.231Z,0.00
2019-02-20T03:32:03.226Z,0.00
2019-02-20T03:33:03.216Z,0.00
2019-02-20T03:34:03.201Z,0.00
2019-02-20T03:35:03.188Z,0.00
2019-02-20T03:36:03.198Z,0.00
2019-02-20T03:37:03.169Z,0.00
2019-02-20T03:38:03.158Z,0.00
2019-02-20T03:39:03.147Z,0.00
2019-02-20T03:40:03.149Z,0.00
2019-02-20T03:41:03.144Z,0.00
2019-02-20T03:42:03.131Z,0.00
2019-02-20T03:43:03.107Z,0.00
2019-02-20T03:44:03.099Z,0.00
2019-02-20T03:45:03.088Z,0.00
2019-02-20T03:46:03.076Z,0.00
2019-02-20T03:47:03.063Z,0.00
2019-02-20T03:48:03.070Z,0.00
2019-02-20T03:49:03.044Z,0.00
2019-02-20T03:50:03.038Z,0.00
2019-02-20T03:51:03.024Z,0.00
2019-02-20T03:52:03.014Z,0.00
2019-02-20T03:53:03.003Z,0.00
2019-02-20T03:54:03.009Z,0.00
2019-02-20T03:55:02.981Z,0.00
2019-02-20T03:56:02.970Z,0.00
2019-02-20T03:57:02.963Z,0.00
2019-02-20T03:58:02.950Z,0.00
2019-02-20T03:59:02.941Z,0.00
2019-02-20T04:00:03.034Z,0.00
2019-02-20T04:01:02.922Z,0.00
2019-02-20T04:02:02.906Z,0.00
2019-02-20T04:03:02.894Z,0.00
2019-02-20T04:04:02.901Z,0.00
2019-02-20T04:05:02.877Z,0.00
2019-02-20T04:06:02.892Z,0.00
2019-02-20T04:07:02.869Z,0.00
2019-02-20T04:08:02.844Z,0.00
2019-02-20T04:09:02.837Z,0.00
2019-02-20T04:10:02.823Z,0.00
2019-02-20T04:11:02.815Z,0.00
2019-02-20T04:12:02.832Z,0.00
2019-02-20T04:13:02.790Z,0.00
2019-02-20T04:14:02.781Z,0.00
2019-02-20T04:15:02.777Z,0.00
2019-02-20T04:16:02.758Z,0.00
2019-02-20T04:17:02.748Z,0.00
2019-02-20T04:18:02.751Z,0.00
2019-02-20T04:19:02.734Z,0.00
2019-02-20T04:20:02.716Z,0.00
2019-02-20T04:21:02.706Z,0.00
2019-02-20T04:22:02.708Z,0.00
2019-02-20T04:23:02.685Z,0.00
2019-02-20T04:24:03.040Z,0.00
2019-02-20T04:25:02.664Z,0.00
2019-02-20T04:26:02.651Z,0.00
2019-02-20T04:27:02.642Z,0.00
2019-02-20T04:28:02.635Z,0.00
2019-02-20T04:29:02.628Z,0.00
2019-02-20T04:30:02.719Z,0.00
2019-02-20T04:31:02.602Z,0.00
2019-02-20T04:32:02.592Z,0.00
2019-02-20T04:33:02.583Z,0.00
2019-02-20T04:34:02.572Z,0.00
2019-02-20T04:35:02.560Z,0.00
2019-02-20T04:36:02.572Z,0.00
2019-02-20T04:37:02.536Z,0.00
2019-02-20T04:38:02.542Z,0.00
2019-02-20T04:39:02.528Z,0.00
2019-02-20T04:40:02.524Z,0.00
2019-02-20T04:41:02.507Z,0.00
2019-02-20T04:42:02.508Z,0.00
2019-02-20T04:43:02.472Z,0.00
2019-02-20T04:44:02.463Z,0.00
2019-02-20T04:45:02.464Z,0.00
2019-02-20T04:46:02.444Z,0.00
2019-02-20T04:47:02.441Z,0.00
2019-02-20T04:48:02.438Z,0.00
2019-02-20T04:49:02.409Z,0.00
2019-02-20T04:50:02.397Z,0.00
2019-02-20T04:51:02.393Z,0.00
2019-02-20T04:52:02.381Z,0.00
2019-02-20T04:53:02.366Z,0.00
2019-02-20T04:54:02.379Z,0.00
2019-02-20T04:55:02.343Z,0.00
2019-02-20T04:56:02.333Z,0.00
2019-02-20T04:57:02.325Z,0.00
2019-02-20T04:58:02.329Z,0.00
2019-02-20T04:59:02.385Z,0.00
2019-02-20T05:00:02.309Z,0.00
2019-02-20T05:01:02.295Z,0.00
2019-02-20T05:02:02.278Z,0.00
2019-02-20T05:03:02.263Z,0.00
2019-02-20T05:04:02.263Z,0.00
2019-02-20T05:05:02.241Z,0.00
2019-02-20T05:06:02.256Z,0.00
2019-02-20T05:07:02.220Z,0.00
2019-02-20T05:08:02.208Z,0.00
2019-02-20T05:10:09.223Z,0.00
2019-02-20T05:11:02.187Z,0.00
2019-02-20T05:12:02.184Z,0.00
2019-02-20T05:13:02.157Z,0.00
2019-02-20T05:14:02.145Z,0.00
2019-02-20T05:15:02.195Z,0.00
2019-02-20T05:16:02.125Z,0.00
2019-02-20T05:17:02.118Z,0.00
2019-02-20T05:18:02.124Z,0.00
2019-02-20T05:19:02.097Z,0.00
2019-02-20T05:20:02.086Z,0.00
2019-02-20T05:21:02.071Z,0.00
2019-02-20T05:22:02.061Z,0.00
2019-02-20T05:23:02.053Z,0.00
2019-02-20T05:24:02.058Z,0.00
2019-02-20T05:25:02.034Z,0.00
2019-02-20T05:26:02.076Z,0.00
2019-02-20T05:27:02.091Z,0.00
2019-02-20T05:28:02.055Z,0.00
2019-02-20T05:29:01.989Z,0.00
2019-02-20T05:30:01.993Z,0.00
2019-02-20T05:31:01.967Z,0.00
2019-02-20T05:32:02.007Z,0.00
2019-02-20T05:33:01.951Z,0.00
2019-02-20T05:34:01.936Z,0.00
2019-02-20T05:35:01.926Z,0.00
2019-02-20T05:36:02.031Z,0.00
2019-02-20T05:37:01.905Z,0.00
2019-02-20T05:38:01.897Z,0.00
2019-02-20T05:39:01.887Z,0.00
2019-02-20T05:40:01.870Z,0.00
2019-02-20T05:41:01.862Z,0.00
2019-02-20T05:42:01.887Z,0.00
2019-02-20T05:43:01.873Z,0.00
2019-02-20T05:44:01.825Z,0.00
2019-02-20T05:45:01.817Z,0.00
2019-02-20T05:46:01.806Z,0.00
2019-02-20T05:47:01.804Z,0.00
2019-02-20T05:48:01.815Z,0.00
2019-02-20T05:49:01.781Z,0.00
2019-02-20T05:50:01.767Z,0.00
2019-02-20T05:51:01.756Z,0.00
2019-02-20T05:52:01.750Z,0.00
2019-02-20T05:53:01.734Z,0.00
2019-02-20T05:54:01.752Z,0.00
2019-02-20T05:55:01.716Z,0.00
2019-02-20T05:56:01.702Z,0.00
2019-02-20T05:57:01.684Z,0.00
2019-02-20T05:58:01.679Z,0.00
2019-02-20T05:59:01.682Z,0.00
2019-02-20T06:00:01.675Z,0.00
2019-02-20T06:01:01.649Z,0.00
2019-02-20T06:02:01.645Z,0.00
2019-02-20T06:03:01.631Z,0.00
2019-02-20T06:04:01.655Z,0.00
2019-02-20T06:05:01.610Z,0.00
2019-02-20T06:06:01.617Z,0.00
2019-02-20T06:07:01.585Z,0.00
2019-02-20T06:08:01.575Z,0.00
2019-02-20T06:09:01.566Z,0.00
2019-02-20T06:10:01.560Z,0.00
2019-02-20T06:11:01.546Z,0.00
2019-02-20T06:12:01.553Z,0.00
2019-02-20T06:13:01.524Z,0.00
2019-02-20T06:14:01.520Z,0.00
2019-02-20T06:15:01.503Z,0.00
2019-02-20T06:16:01.490Z,0.00
2019-02-20T06:17:01.487Z,0.00
2019-02-20T06:18:01.487Z,5.62
2019-02-20T06:19:01.463Z,5.62
2019-02-20T06:20:01.452Z,5.62
2019-02-20T06:21:01.443Z,5.62
2019-02-20T06:22:01.426Z,5.62
2019-02-20T06:23:01.416Z,5.62
2019-02-20T06:24:01.423Z,5.62
2019-02-20T06:25:01.397Z,11.25
2019-02-20T06:26:01.445Z,11.25
2019-02-20T06:27:01.378Z,11.25
2019-02-20T06:28:01.365Z,11.25
2019-02-20T06:29:01.352Z,16.88
2019-02-20T06:30:01.365Z,16.88
2019-02-20T06:31:01.330Z,16.88
2019-02-20T06:32:01.333Z,22.50
2019-02-20T06:33:01.311Z,22.50
2019-02-20T06:34:01.303Z,28.12
2019-02-20T06:35:01.287Z,28.12
2019-02-20T06:36:01.295Z,33.75
2019-02-20T06:37:01.267Z,33.75
2019-02-20T06:38:01.260Z,39.38
2019-02-20T06:39:01.247Z,39.38
2019-02-20T06:40:01.241Z,45.00
2019-02-20T06:41:01.222Z,45.00
2019-02-20T06:42:01.228Z,50.62
2019-02-20T06:43:01.206Z,50.62
2019-02-20T06:44:01.193Z,56.25
2019-02-20T06:45:01.195Z,56.25
2019-02-20T06:46:01.170Z,61.88
2019-02-20T06:47:01.164Z,61.88
2019-02-20T06:48:01.171Z,67.50
2019-02-20T06:49:01.142Z,73.12
2019-02-20T06:50:01.768Z,78.75
2019-02-20T06:51:01.128Z,78.75
2019-02-20T06:52:01.112Z,78.75
2019-02-20T06:53:01.098Z,84.38
2019-02-20T06:54:01.107Z,90.00
2019-02-20T06:55:01.080Z,95.62
2019-02-20T06:56:01.078Z,101.25
2019-02-20T06:57:01.060Z,106.88
2019-02-20T06:58:01.048Z,112.50
2019-02-20T06:59:01.041Z,112.50
2019-02-20T07:00:01.048Z,118.12
2019-02-20T07:01:01.018Z,123.75
2019-02-20T07:02:01.003Z,129.38
2019-02-20T07:03:01.018Z,135.00
2019-02-20T07:04:00.989Z,140.62
2019-02-20T07:05:00.977Z,146.25
2019-02-20T07:06:00.984Z,151.88
2019-02-20T07:07:00.959Z,157.50
2019-02-20T07:08:00.945Z,174.38
2019-02-20T07:09:00.935Z,208.12
2019-02-20T07:10:00.934Z,241.88
2019-02-20T07:11:00.913Z,258.75
2019-02-20T07:12:00.922Z,275.62
2019-02-20T07:13:00.892Z,286.88
2019-02-20T07:14:00.883Z,281.25
2019-02-20T07:15:00.907Z,270.00
2019-02-20T07:16:00.861Z,286.88
2019-02-20T07:17:00.854Z,303.75
2019-02-20T07:18:00.852Z,315.00
2019-02-20T07:19:00.831Z,326.25
2019-02-20T07:20:00.819Z,331.88
2019-02-20T07:21:00.808Z,343.12
2019-02-20T07:22:00.823Z,343.12
2019-02-20T07:23:00.787Z,354.38
2019-02-20T07:24:00.798Z,371.25
2019-02-20T07:25:03.078Z,382.50
2019-02-20T07:26:00.757Z,399.38
2019-02-20T07:27:00.748Z,405.00
2019-02-20T07:28:00.736Z,405.00
2019-02-20T07:29:00.722Z,410.62
2019-02-20T07:30:00.729Z,416.25
2019-02-20T07:31:00.720Z,421.88
2019-02-20T07:32:00.690Z,421.88
2019-02-20T07:33:00.677Z,433.12
2019-02-20T07:34:00.676Z,433.12
2019-02-20T07:35:00.660Z,427.50
2019-02-20T07:36:00.683Z,421.88
2019-02-20T07:37:00.656Z,416.25
2019-02-20T07:38:00.628Z,433.12
2019-02-20T07:39:00.628Z,455.62
2019-02-20T07:40:00.611Z,455.62
2019-02-20T07:41:00.590Z,450.00
2019-02-20T07:42:00.697Z,472.50
2019-02-20T07:43:00.573Z,466.88
2019-02-20T07:44:00.562Z,433.12
2019-02-20T07:45:00.552Z,433.12
2019-02-20T07:46:00.539Z,472.50
2019-02-20T07:47:00.531Z,472.50
2019-02-20T07:48:00.536Z,478.12
2019-02-20T07:49:00.509Z,478.12
2019-02-20T07:50:00.524Z,472.50
2019-02-20T07:51:00.484Z,466.88
2019-02-20T07:52:00.490Z,455.62
2019-02-20T07:53:00.467Z,483.75
2019-02-20T07:54:00.464Z,511.88
2019-02-20T07:55:00.467Z,517.50
2019-02-20T07:56:00.432Z,523.12
2019-02-20T07:57:00.420Z,540.00
2019-02-20T07:58:00.414Z,534.38
2019-02-20T07:59:00.404Z,562.50
2019-02-20T08:00:00.451Z,568.12
2019-02-20T08:01:00.382Z,573.75
2019-02-20T08:02:00.364Z,579.38
2019-02-20T08:03:00.356Z,579.38
2019-02-20T08:04:00.355Z,585.00
2019-02-20T08:05:00.360Z,613.12
2019-02-20T08:06:00.340Z,635.62
2019-02-20T08:07:00.318Z,663.75
2019-02-20T08:08:00.308Z,680.62
2019-02-20T08:09:00.291Z,697.50
2019-02-20T08:10:00.394Z,703.12
2019-02-20T08:11:00.268Z,714.38
2019-02-20T08:12:00.281Z,748.12
2019-02-20T08:13:00.249Z,776.25
2019-02-20T08:14:00.236Z,815.62
2019-02-20T08:15:00.329Z,838.12
2019-02-20T08:16:00.217Z,855.00
2019-02-20T08:17:00.202Z,871.88
2019-02-20T08:18:00.205Z,877.50
2019-02-20T08:19:00.192Z,900.00
2019-02-20T08:20:00.320Z,922.50
2019-02-20T08:21:00.181Z,950.62
2019-02-20T08:22:00.159Z,939.38
2019-02-20T08:23:00.143Z,900.00
2019-02-20T08:24:00.141Z,849.38
2019-02-20T08:25:00.397Z,871.88
2019-02-20T08:26:00.105Z,860.62
2019-02-20T08:27:00.099Z,838.12
2019-02-20T08:28:00.083Z,826.88
2019-02-20T08:29:00.077Z,815.62
2019-02-20T08:30:00.269Z,804.38
2019-02-20T08:31:00.047Z,781.88
2019-02-20T08:32:00.044Z,680.62
2019-02-20T08:33:00.032Z,708.75
2019-02-20T08:34:00.019Z,725.62
2019-02-20T08:35:00.006Z,826.88
2019-02-20T08:36:00.017Z,877.50
2019-02-20T08:36:59.985Z,911.25
2019-02-20T08:37:59.977Z,939.38
2019-02-20T08:38:59.961Z,956.25
2019-02-20T08:39:59.953Z,928.12
2019-02-20T08:40:59.942Z,978.75
2019-02-20T08:41:59.951Z,978.75
2019-02-20T08:42:59.917Z,1001.25
2019-02-20T08:43:59.908Z,1006.88
2019-02-20T08:44:59.899Z,956.25
2019-02-20T08:45:59.886Z,911.25
2019-02-20T08:46:59.876Z,731.25
2019-02-20T08:47:59.883Z,652.50
2019-02-20T08:48:59.856Z,646.88
2019-02-20T08:49:59.851Z,646.88
2019-02-20T08:50:59.835Z,618.75
2019-02-20T08:51:59.825Z,613.12
2019-02-20T08:52:59.810Z,618.75
2019-02-20T08:53:59.815Z,669.38
2019-02-20T08:54:59.796Z,686.25
2019-02-20T08:55:59.794Z,624.38
2019-02-20T08:56:59.768Z,607.50
2019-02-20T08:57:59.754Z,607.50
2019-02-20T08:58:59.747Z,618.75
2019-02-20T08:59:59.750Z,630.00
2019-02-20T09:00:59.719Z,658.12
2019-02-20T09:01:59.730Z,675.00
2019-02-20T09:02:59.697Z,652.50
2019-02-20T09:03:59.691Z,635.62
2019-02-20T09:04:59.678Z,652.50
2019-02-20T09:05:59.681Z,669.38
2019-02-20T09:06:59.691Z,663.75
2019-02-20T09:07:59.649Z,680.62
2019-02-20T09:08:59.634Z,736.88
2019-02-20T09:09:59.631Z,759.38
2019-02-20T09:10:59.611Z,736.88
2019-02-20T09:11:59.627Z,776.25
2019-02-20T09:12:59.593Z,1001.25
2019-02-20T09:13:59.603Z,1035.00
2019-02-20T09:14:59.573Z,956.25
2019-02-20T09:15:59.582Z,1023.75
2019-02-20T09:16:59.547Z,978.75
2019-02-20T09:17:59.576Z,815.62
2019-02-20T09:18:59.525Z,855.00
2019-02-20T09:19:59.520Z,1063.12
2019-02-20T09:20:59.512Z,1350.00
2019-02-20T09:21:59.499Z,1575.00
2019-02-20T09:22:59.487Z,1620.00
2019-02-20T09:23:59.486Z,1636.88
2019-02-20T09:24:59.457Z,1676.25
2019-02-20T09:25:59.448Z,1710.00
2019-02-20T09:26:59.432Z,1721.25
2019-02-20T09:27:59.444Z,1777.50
2019-02-20T09:28:59.419Z,1777.50
2019-02-20T09:29:59.515Z,1721.25
2019-02-20T09:30:59.403Z,1721.25
2019-02-20T09:31:59.377Z,1749.38
2019-02-20T09:32:59.373Z,1811.25
2019-02-20T09:33:59.355Z,1783.12
2019-02-20T09:34:59.369Z,1766.25
2019-02-20T09:35:59.399Z,1788.75
2019-02-20T09:36:59.326Z,1608.75
2019-02-20T09:37:59.313Z,1873.12
2019-02-20T09:38:59.322Z,1906.88
2019-02-20T09:39:59.311Z,1929.38
2019-02-20T09:40:59.314Z,1985.62
2019-02-20T09:41:59.287Z,2008.12
2019-02-20T09:42:59.265Z,2002.50
2019-02-20T09:43:59.253Z,1980.00
2019-02-20T09:44:59.240Z,1946.25
2019-02-20T09:45:59.234Z,1929.38
2019-02-20T09:46:59.218Z,1985.62
2019-02-20T09:47:59.224Z,2070.00
2019-02-20T09:48:59.198Z,2098.12
2019-02-20T09:49:59.186Z,2047.50
2019-02-20T09:50:59.184Z,1957.50
2019-02-20T09:51:59.179Z,2086.88
2019-02-20T09:52:59.154Z,2086.88
2019-02-20T09:53:59.211Z,2036.25
2019-02-20T09:54:59.128Z,1991.25
2019-02-20T09:55:59.122Z,2053.12
2019-02-20T09:56:59.123Z,2115.00
2019-02-20T09:57:59.121Z,2098.12
2019-02-20T09:58:59.084Z,2064.38
2019-02-20T09:59:59.094Z,2041.88
2019-02-20T10:00:59.068Z,2131.88
2019-02-20T10:01:59.053Z,2176.88
2019-02-20T10:02:59.043Z,2109.38
2019-02-20T10:03:59.591Z,2086.88
2019-02-20T10:04:59.040Z,2109.38
2019-02-20T10:05:59.032Z,2131.88
2019-02-20T10:06:59.001Z,2160.00
2019-02-20T10:07:58.995Z,2126.25
2019-02-20T10:08:58.979Z,2154.38
2019-02-20T10:09:58.966Z,2115.00
2019-02-20T10:10:58.959Z,2171.25
2019-02-20T10:11:59.049Z,2272.50
2019-02-20T10:12:58.937Z,2250.00
2019-02-20T10:13:58.942Z,2244.38
2019-02-20T10:14:58.919Z,2216.25
2019-02-20T10:15:58.903Z,2205.00
2019-02-20T10:16:58.894Z,2250.00
2019-02-20T10:17:58.993Z,2250.00
2019-02-20T10:18:58.867Z,2289.38
2019-02-20T10:19:58.854Z,2283.75
2019-02-20T10:20:58.848Z,2238.75
2019-02-20T10:21:58.835Z,2250.00
2019-02-20T10:22:58.822Z,2300.62
2019-02-20T10:23:58.831Z,2295.00
2019-02-20T10:24:58.812Z,2278.12
2019-02-20T10:26:01.130Z,2295.00
2019-02-20T10:27:00.854Z,2306.25
2019-02-20T10:27:58.770Z,2323.12
2019-02-20T10:28:58.755Z,2295.00
2019-02-20T10:29:58.765Z,2233.12
2019-02-20T10:30:58.739Z,2351.25
2019-02-20T10:31:58.728Z,2368.12
2019-02-20T10:32:58.714Z,2323.12
2019-02-20T10:33:58.708Z,2300.62
2019-02-20T10:34:58.693Z,2340.00
2019-02-20T10:35:58.690Z,2345.62
2019-02-20T10:36:58.670Z,2317.50
2019-02-20T10:37:58.666Z,2244.38
2019-02-20T10:38:58.662Z,2323.12
2019-02-20T10:39:58.636Z,2368.12
2019-02-20T10:40:58.630Z,2148.75
2019-02-20T10:41:58.633Z,2266.88
2019-02-20T10:42:58.607Z,2323.12
2019-02-20T10:43:58.591Z,2351.25
2019-02-20T10:44:58.582Z,2385.00
2019-02-20T10:45:58.571Z,2396.25
2019-02-20T10:46:58.560Z,2356.88
2019-02-20T10:47:58.565Z,2368.12
2019-02-20T10:48:58.539Z,2396.25
2019-02-20T10:49:58.530Z,2356.88
2019-02-20T10:50:58.517Z,2261.25
2019-02-20T10:51:58.512Z,2160.00
2019-02-20T10:52:58.495Z,2261.25
2019-02-20T10:53:58.501Z,2390.62
2019-02-20T10:54:58.470Z,2441.25
2019-02-20T10:55:58.461Z,2418.75
2019-02-20T10:56:58.452Z,2435.62
2019-02-20T10:57:58.446Z,2520.00
2019-02-20T10:58:58.429Z,2553.75
2019-02-20T10:59:58.520Z,2525.62
2019-02-20T11:00:58.410Z,2486.25
2019-02-20T11:01:58.400Z,2458.12
2019-02-20T11:02:58.388Z,2424.38
2019-02-20T11:03:58.381Z,2396.25
2019-02-20T11:04:58.362Z,2435.62
2019-02-20T11:05:58.368Z,2435.62
2019-02-20T11:06:58.339Z,2401.88
2019-02-20T11:07:58.329Z,2446.88
2019-02-20T11:08:58.318Z,2508.75
2019-02-20T11:10:05.340Z,2491.88
2019-02-20T11:10:58.297Z,2542.50
2019-02-20T11:11:58.320Z,2491.88
2019-02-20T11:12:58.274Z,2373.75
2019-02-20T11:13:58.264Z,2362.50
2019-02-20T11:14:58.255Z,2413.12
2019-02-20T11:15:58.939Z,2401.88
2019-02-20T11:16:58.227Z,2379.38
2019-02-20T11:17:58.236Z,2458.12
2019-02-20T11:18:58.208Z,2531.25
2019-02-20T11:19:58.197Z,2576.25
2019-02-20T11:20:58.185Z,2553.75
2019-02-20T11:21:58.176Z,2508.75
2019-02-20T11:22:58.166Z,2525.62
2019-02-20T11:23:58.175Z,2548.12
2019-02-20T11:24:58.146Z,2531.25
2019-02-20T11:25:58.135Z,2486.25
2019-02-20T11:26:58.122Z,2475.00
2019-02-20T11:27:58.132Z,2486.25
2019-02-20T11:28:58.110Z,2458.12
2019-02-20T11:29:58.194Z,2430.00
2019-02-20T11:30:58.088Z,2520.00
2019-02-20T11:31:58.066Z,2536.88
2019-02-20T11:32:58.053Z,2514.38
2019-02-20T11:33:58.046Z,2660.62
2019-02-20T11:34:58.045Z,2272.50
2019-02-20T11:35:58.041Z,2216.25
2019-02-20T11:36:58.011Z,2503.12
2019-02-20T11:37:57.998Z,2508.75
2019-02-20T11:38:57.992Z,2503.12
2019-02-20T11:39:57.983Z,2430.00
2019-02-20T11:40:57.966Z,2441.25
2019-02-20T11:41:57.972Z,2458.12
2019-02-20T11:42:57.944Z,2503.12
2019-02-20T11:43:57.934Z,2525.62
2019-02-20T11:44:57.921Z,2458.12
2019-02-20T11:45:57.916Z,2503.12
2019-02-20T11:46:57.900Z,2531.25
2019-02-20T11:47:57.922Z,2458.12
2019-02-20T11:48:57.901Z,2430.00
2019-02-20T11:49:57.867Z,2413.12
2019-02-20T11:50:57.857Z,2362.50
2019-02-20T11:51:57.841Z,2413.12
2019-02-20T11:52:57.836Z,2446.88
2019-02-20T11:53:57.840Z,2424.38
2019-02-20T11:54:57.816Z,2491.88
2019-02-20T11:55:57.806Z,2559.38
2019-02-20T11:56:57.787Z,2525.62
2019-02-20T11:58:00.777Z,2497.50
2019-02-20T11:58:57.768Z,2486.25
2019-02-20T11:59:57.863Z,2475.00
2019-02-20T12:00:57.759Z,2497.50
2019-02-20T12:01:57.737Z,2385.00
2019-02-20T12:02:57.722Z,2396.25
2019-02-20T12:03:57.713Z,2323.12
2019-02-20T12:04:57.708Z,2323.12
2019-02-20T12:05:57.706Z,2334.38
2019-02-20T12:06:57.680Z,2255.62
2019-02-20T12:07:57.671Z,2300.62
2019-02-20T12:08:57.662Z,2238.75
2019-02-20T12:09:57.648Z,2250.00
2019-02-20T12:10:57.633Z,2165.62
2019-02-20T12:11:57.642Z,2064.38
2019-02-20T12:12:57.616Z,1957.50
2019-02-20T12:13:57.604Z,1996.88
2019-02-20T12:14:57.591Z,2047.50
2019-02-20T12:15:57.585Z,2041.88
2019-02-20T12:16:57.572Z,2131.88
2019-02-20T12:17:57.575Z,2036.25
2019-02-20T12:18:57.571Z,2036.25
2019-02-20T12:19:57.543Z,2075.62
2019-02-20T12:20:57.534Z,1985.62
2019-02-20T12:21:57.517Z,1918.12
2019-02-20T12:22:57.527Z,1856.25
2019-02-20T12:23:57.540Z,1771.88
2019-02-20T12:24:59.261Z,1771.88
2019-02-20T12:25:57.477Z,1833.75
2019-02-20T12:26:57.461Z,1631.25
2019-02-20T12:27:57.452Z,1597.50
2019-02-20T12:28:57.440Z,1648.12
2019-02-20T12:29:57.448Z,1586.25
2019-02-20T12:30:57.416Z,1462.50
2019-02-20T12:31:57.425Z,1479.38
2019-02-20T12:32:57.397Z,1423.12
2019-02-20T12:33:57.390Z,1181.25
2019-02-20T12:34:57.377Z,1158.75
2019-02-20T12:35:57.384Z,1260.00
2019-02-20T12:36:57.349Z,1338.75
2019-02-20T12:37:57.342Z,1271.25
2019-02-20T12:38:57.333Z,1575.00
2019-02-20T12:39:57.326Z,1490.62
2019-02-20T12:40:57.308Z,1276.88
2019-02-20T12:41:57.314Z,1198.12
2019-02-20T12:42:57.289Z,1265.62
2019-02-20T12:43:57.293Z,1226.25
2019-02-20T12:44:58.544Z,1288.12
2019-02-20T12:45:57.256Z,1383.75
2019-02-20T12:46:57.245Z,1468.12